sensor_id;sensor_type;location;lat;lon;timestamp;pressure;altitude;pressure_sealevel;temperature;humidity
10587;BME280;5341;47.606;7.576;2022-08-14T00:01:44;98278.59;;;27.39;27.48
10587;BME280;5341;47.606;7.576;2022-08-14T00:04:13;98279.72;;;27.38;27.38
10587;BME280;5341;47.606;7.576;2022-08-14T00:06:41;98275.31;;;27.37;27.41
10587;BME280;5341;47.606;7.576;2022-08-14T00:09:09;98272.06;;;27.35;27.94
10587;BME280;5341;47.606;7.576;2022-08-14T00:11:36;98274.41;;;27.28;28.04
10587;BME280;5341;47.606;7.576;2022-08-14T00:14:04;98279.78;;;27.19;27.92
10587;BME280;5341;47.606;7.576;2022-08-14T00:16:32;98272.03;;;27.21;28.38
10587;BME280;5341;47.606;7.576;2022-08-14T00:19:01;98274.78;;;27.21;28.24
10587;BME280;5341;47.606;7.576;2022-08-14T00:21:28;98260.56;;;27.19;28.34
10587;BME280;5341;47.606;7.576;2022-08-14T00:23:57;98263.91;;;27.16;28.32
10587;BME280;5341;47.606;7.576;2022-08-14T00:26:25;98266.97;;;27.14;28.45
10587;BME280;5341;47.606;7.576;2022-08-14T00:28:52;98263.47;;;27.09;28.27
10587;BME280;5341;47.606;7.576;2022-08-14T00:31:21;98253.13;;;27.06;28.11
10587;BME280;5341;47.606;7.576;2022-08-14T00:33:48;98255.09;;;27.00;28.43
10587;BME280;5341;47.606;7.576;2022-08-14T00:36:17;98259.56;;;26.96;28.89
10587;BME280;5341;47.606;7.576;2022-08-14T00:38:46;98253.63;;;26.89;28.91
10587;BME280;5341;47.606;7.576;2022-08-14T00:41:15;98250.06;;;26.88;28.72
10587;BME280;5341;47.606;7.576;2022-08-14T00:43:44;98238.00;;;26.90;28.79
10587;BME280;5341;47.606;7.576;2022-08-14T00:46:12;98235.53;;;26.88;28.68
10587;BME280;5341;47.606;7.576;2022-08-14T00:48:40;98240.00;;;26.84;28.65
10587;BME280;5341;47.606;7.576;2022-08-14T00:51:08;98235.44;;;26.79;29.04
10587;BME280;5341;47.606;7.576;2022-08-14T00:53:39;98249.16;;;26.79;28.97
10587;BME280;5341;47.606;7.576;2022-08-14T00:56:08;98248.94;;;26.76;29.20
10587;BME280;5341;47.606;7.576;2022-08-14T00:58:38;98238.06;;;26.71;29.07
10587;BME280;5341;47.606;7.576;2022-08-14T01:01:07;98234.06;;;26.63;29.46
10587;BME280;5341;47.606;7.576;2022-08-14T01:03:36;98233.41;;;26.52;29.56
10587;BME280;5341;47.606;7.576;2022-08-14T01:06:08;98225.28;;;26.47;29.58
10587;BME280;5341;47.606;7.576;2022-08-14T01:08:38;98222.44;;;26.52;29.55
10587;BME280;5341;47.606;7.576;2022-08-14T01:11:10;98212.88;;;26.50;29.78
10587;BME280;5341;47.606;7.576;2022-08-14T01:13:43;98220.22;;;26.36;29.82
10587;BME280;5341;47.606;7.576;2022-08-14T01:16:13;98210.22;;;26.26;29.82
10587;BME280;5341;47.606;7.576;2022-08-14T01:18:43;98215.28;;;26.19;29.96
10587;BME280;5341;47.606;7.576;2022-08-14T01:21:32;98211.78;;;26.13;29.96
10587;BME280;5341;47.606;7.576;2022-08-14T01:24:02;98213.19;;;26.11;30.21
10587;BME280;5341;47.606;7.576;2022-08-14T01:26:29;98209.66;;;26.10;30.13
10587;BME280;5341;47.606;7.576;2022-08-14T01:28:57;98208.53;;;26.11;30.12
10587;BME280;5341;47.606;7.576;2022-08-14T01:31:26;98206.31;;;26.13;30.01
10587;BME280;5341;47.606;7.576;2022-08-14T01:33:57;98192.19;;;26.06;30.21
10587;BME280;5341;47.606;7.576;2022-08-14T01:36:26;98194.09;;;26.06;30.01
10587;BME280;5341;47.606;7.576;2022-08-14T01:38:56;98185.06;;;26.05;30.33
10587;BME280;5341;47.606;7.576;2022-08-14T01:41:25;98189.19;;;26.03;30.38
10587;BME280;5341;47.606;7.576;2022-08-14T01:43:54;98180.97;;;26.03;30.39
10587;BME280;5341;47.606;7.576;2022-08-14T01:46:27;98178.53;;;26.01;30.69
10587;BME280;5341;47.606;7.576;2022-08-14T01:48:56;98172.53;;;25.99;30.37
10587;BME280;5341;47.606;7.576;2022-08-14T01:51:26;98166.34;;;25.93;30.65
10587;BME280;5341;47.606;7.576;2022-08-14T01:53:57;98162.84;;;25.88;31.07
10587;BME280;5341;47.606;7.576;2022-08-14T01:56:27;98171.66;;;25.85;30.74
10587;BME280;5341;47.606;7.576;2022-08-14T01:59:04;98159.69;;;25.81;31.08
10587;BME280;5341;47.606;7.576;2022-08-14T02:01:32;98157.81;;;25.76;31.02
10587;BME280;5341;47.606;7.576;2022-08-14T02:04:03;98149.81;;;25.80;31.14
10587;BME280;5341;47.606;7.576;2022-08-14T02:06:30;98142.13;;;25.82;31.06
10587;BME280;5341;47.606;7.576;2022-08-14T02:09:01;98143.28;;;25.76;31.57
10587;BME280;5341;47.606;7.576;2022-08-14T02:11:29;98142.00;;;25.68;31.53
10587;BME280;5341;47.606;7.576;2022-08-14T02:13:58;98137.63;;;25.67;31.54
10587;BME280;5341;47.606;7.576;2022-08-14T02:16:27;98137.41;;;25.63;31.72
10587;BME280;5341;47.606;7.576;2022-08-14T02:19:03;98140.66;;;25.65;31.51
10587;BME280;5341;47.606;7.576;2022-08-14T02:21:33;98134.38;;;25.65;31.55
10587;BME280;5341;47.606;7.576;2022-08-14T02:24:04;98130.59;;;25.61;31.62
10587;BME280;5341;47.606;7.576;2022-08-14T02:26:35;98121.38;;;25.57;31.89
10587;BME280;5341;47.606;7.576;2022-08-14T02:29:08;98121.94;;;25.54;31.79
10587;BME280;5341;47.606;7.576;2022-08-14T02:31:38;98113.81;;;25.49;31.79
10587;BME280;5341;47.606;7.576;2022-08-14T02:34:08;98114.44;;;25.40;31.71
10587;BME280;5341;47.606;7.576;2022-08-14T02:36:36;98115.88;;;25.38;32.07
10587;BME280;5341;47.606;7.576;2022-08-14T02:39:09;98120.53;;;25.37;32.12
10587;BME280;5341;47.606;7.576;2022-08-14T02:41:37;98118.38;;;25.34;32.64
10587;BME280;5341;47.606;7.576;2022-08-14T02:44:07;98112.16;;;25.29;32.86
10587;BME280;5341;47.606;7.576;2022-08-14T02:46:35;98116.28;;;25.26;32.80
10587;BME280;5341;47.606;7.576;2022-08-14T02:49:03;98115.56;;;25.21;32.85
10587;BME280;5341;47.606;7.576;2022-08-14T02:51:32;98112.06;;;25.15;32.94
10587;BME280;5341;47.606;7.576;2022-08-14T02:54:01;98115.91;;;25.14;32.75
10587;BME280;5341;47.606;7.576;2022-08-14T02:56:30;98109.91;;;25.12;33.05
10587;BME280;5341;47.606;7.576;2022-08-14T02:58:59;98114.28;;;25.13;32.77
10587;BME280;5341;47.606;7.576;2022-08-14T03:01:27;98115.69;;;25.10;32.90
10587;BME280;5341;47.606;7.576;2022-08-14T03:03:54;98114.88;;;25.10;32.75
10587;BME280;5341;47.606;7.576;2022-08-14T03:06:22;98111.84;;;25.11;32.79
10587;BME280;5341;47.606;7.576;2022-08-14T03:08:51;98107.38;;;25.16;32.89
10587;BME280;5341;47.606;7.576;2022-08-14T03:11:19;98096.44;;;25.16;32.93
10587;BME280;5341;47.606;7.576;2022-08-14T03:13:50;98103.53;;;25.17;33.01
10587;BME280;5341;47.606;7.576;2022-08-14T03:16:20;98099.47;;;25.14;33.28
10587;BME280;5341;47.606;7.576;2022-08-14T03:18:49;98088.31;;;25.10;33.12
10587;BME280;5341;47.606;7.576;2022-08-14T03:21:19;98090.59;;;25.03;33.57
10587;BME280;5341;47.606;7.576;2022-08-14T03:23:49;98098.34;;;24.91;34.13
10587;BME280;5341;47.606;7.576;2022-08-14T03:26:22;98088.19;;;24.73;34.38
10587;BME280;5341;47.606;7.576;2022-08-14T03:28:53;98080.53;;;24.70;34.38
10587;BME280;5341;47.606;7.576;2022-08-14T03:31:21;98081.66;;;24.69;34.45
10587;BME280;5341;47.606;7.576;2022-08-14T03:33:49;98092.03;;;24.72;34.43
10587;BME280;5341;47.606;7.576;2022-08-14T03:36:19;98092.03;;;24.72;34.33
10587;BME280;5341;47.606;7.576;2022-08-14T03:38:49;98083.34;;;24.65;34.55
10587;BME280;5341;47.606;7.576;2022-08-14T03:41:20;98099.28;;;24.58;35.05
10587;BME280;5341;47.606;7.576;2022-08-14T03:43:50;98092.25;;;24.51;35.31
10587;BME280;5341;47.606;7.576;2022-08-14T03:46:20;98083.22;;;24.51;34.75
10587;BME280;5341;47.606;7.576;2022-08-14T03:48:48;98095.19;;;24.55;34.79
10587;BME280;5341;47.606;7.576;2022-08-14T03:51:16;98093.56;;;24.54;34.88
10587;BME280;5341;47.606;7.576;2022-08-14T03:53:44;98090.31;;;24.52;35.07
10587;BME280;5341;47.606;7.576;2022-08-14T03:56:15;98096.06;;;24.50;35.08
10587;BME280;5341;47.606;7.576;2022-08-14T03:58:46;98098.69;;;24.37;35.42
10587;BME280;5341;47.606;7.576;2022-08-14T04:01:15;98096.25;;;24.35;35.49
10587;BME280;5341;47.606;7.576;2022-08-14T04:03:46;98093.22;;;24.37;35.49
10587;BME280;5341;47.606;7.576;2022-08-14T04:06:13;98091.03;;;24.34;35.81
10587;BME280;5341;47.606;7.576;2022-08-14T04:08:42;98097.59;;;24.33;35.55
10587;BME280;5341;47.606;7.576;2022-08-14T04:11:09;98102.25;;;24.32;35.53
10587;BME280;5341;47.606;7.576;2022-08-14T04:13:39;98101.44;;;24.32;35.23
10587;BME280;5341;47.606;7.576;2022-08-14T04:16:10;98106.69;;;24.23;35.38
10587;BME280;5341;47.606;7.576;2022-08-14T04:18:38;98112.72;;;24.20;35.34
10587;BME280;5341;47.606;7.576;2022-08-14T04:21:08;98110.56;;;24.17;35.33
10587;BME280;5341;47.606;7.576;2022-08-14T04:23:35;98117.66;;;24.18;35.33
10587;BME280;5341;47.606;7.576;2022-08-14T04:26:05;98116.03;;;24.17;35.38
10587;BME280;5341;47.606;7.576;2022-08-14T04:28:34;98111.75;;;24.06;35.29
10587;BME280;5341;47.606;7.576;2022-08-14T04:31:03;98116.16;;;24.02;35.76
10587;BME280;5341;47.606;7.576;2022-08-14T04:33:31;98114.53;;;24.01;35.89
10587;BME280;5341;47.606;7.576;2022-08-14T04:35:59;98119.44;;;23.98;35.66
10587;BME280;5341;47.606;7.576;2022-08-14T04:38:30;98126.28;;;23.96;35.92
10587;BME280;5341;47.606;7.576;2022-08-14T04:41:15;98123.03;;;23.94;36.14
10587;BME280;5341;47.606;7.576;2022-08-14T04:44:00;98121.69;;;23.91;36.37
10587;BME280;5341;47.606;7.576;2022-08-14T04:46:27;98124.72;;;23.85;36.25
10587;BME280;5341;47.606;7.576;2022-08-14T04:48:55;98114.38;;;23.82;36.08
10587;BME280;5341;47.606;7.576;2022-08-14T04:51:22;98114.91;;;23.84;35.95
10587;BME280;5341;47.606;7.576;2022-08-14T04:53:53;98112.72;;;23.86;35.68
10587;BME280;5341;47.606;7.576;2022-08-14T04:56:23;98106.19;;;23.87;35.71
10587;BME280;5341;47.606;7.576;2022-08-14T04:58:52;98102.59;;;23.86;35.84
10587;BME280;5341;47.606;7.576;2022-08-14T05:01:23;98098.25;;;23.85;35.72
10587;BME280;5341;47.606;7.576;2022-08-14T05:03:51;98097.13;;;23.86;35.64
10587;BME280;5341;47.606;7.576;2022-08-14T05:06:20;98086.50;;;23.85;35.79
10587;BME280;5341;47.606;7.576;2022-08-14T05:08:48;98082.44;;;23.82;36.00
10587;BME280;5341;47.606;7.576;2022-08-14T05:11:17;98072.31;;;23.83;35.73
10587;BME280;5341;47.606;7.576;2022-08-14T05:13:45;98066.34;;;23.81;35.68
10587;BME280;5341;47.606;7.576;2022-08-14T05:16:14;98061.69;;;23.81;35.73
10587;BME280;5341;47.606;7.576;2022-08-14T05:18:42;98053.78;;;23.80;35.67
10587;BME280;5341;47.606;7.576;2022-08-14T05:21:11;98043.16;;;23.78;35.64
10587;BME280;5341;47.606;7.576;2022-08-14T05:23:39;98047.81;;;23.78;35.93
10587;BME280;5341;47.606;7.576;2022-08-14T05:26:07;98043.16;;;23.78;35.95
10587;BME280;5341;47.606;7.576;2022-08-14T05:28:44;98047.22;;;23.81;36.07
10587;BME280;5341;47.606;7.576;2022-08-14T05:31:14;98034.69;;;23.80;35.93
10587;BME280;5341;47.606;7.576;2022-08-14T05:33:43;98036.00;;;23.82;35.64
10587;BME280;5341;47.606;7.576;2022-08-14T05:36:11;98027.00;;;23.82;35.66
10587;BME280;5341;47.606;7.576;2022-08-14T05:38:41;98037.13;;;23.81;35.76
10587;BME280;5341;47.606;7.576;2022-08-14T05:41:11;98025.91;;;23.83;35.62
10587;BME280;5341;47.606;7.576;2022-08-14T05:43:40;98020.16;;;23.84;35.60
10587;BME280;5341;47.606;7.576;2022-08-14T05:46:11;98015.22;;;23.86;35.80
10587;BME280;5341;47.606;7.576;2022-08-14T05:48:40;98021.53;;;23.87;35.77
10587;BME280;5341;47.606;7.576;2022-08-14T05:51:07;98019.88;;;23.86;35.77
10587;BME280;5341;47.606;7.576;2022-08-14T05:53:35;98017.72;;;23.83;35.83
10587;BME280;5341;47.606;7.576;2022-08-14T05:56:03;98016.09;;;23.82;35.73
10587;BME280;5341;47.606;7.576;2022-08-14T05:58:31;98002.19;;;23.78;35.57
10587;BME280;5341;47.606;7.576;2022-08-14T06:00:58;98012.31;;;23.78;35.48
10587;BME280;5341;47.606;7.576;2022-08-14T06:03:28;98009.28;;;23.79;35.66
10587;BME280;5341;47.606;7.576;2022-08-14T06:05:55;98017.47;;;23.79;35.91
10587;BME280;5341;47.606;7.576;2022-08-14T06:08:26;98017.19;;;23.81;35.80
10587;BME280;5341;47.606;7.576;2022-08-14T06:10:57;98016.59;;;23.84;35.77
10587;BME280;5341;47.606;7.576;2022-08-14T06:13:28;98017.41;;;23.89;35.75
10587;BME280;5341;47.606;7.576;2022-08-14T06:15:57;98017.63;;;23.93;35.70
10587;BME280;5341;47.606;7.576;2022-08-14T06:18:25;98017.56;;;23.98;35.75
10587;BME280;5341;47.606;7.576;2022-08-14T06:20:55;98019.75;;;24.01;35.78
10587;BME280;5341;47.606;7.576;2022-08-14T06:23:22;98014.50;;;24.05;35.77
10587;BME280;5341;47.606;7.576;2022-08-14T06:25:50;98021.38;;;24.02;36.15
10587;BME280;5341;47.606;7.576;2022-08-14T06:28:19;98026.84;;;24.02;35.98
10587;BME280;5341;47.606;7.576;2022-08-14T06:30:48;98022.72;;;24.05;36.15
10587;BME280;5341;47.606;7.576;2022-08-14T06:33:17;98017.47;;;24.08;36.01
10587;BME280;5341;47.606;7.576;2022-08-14T06:35:46;98020.19;;;24.13;35.84
10587;BME280;5341;47.606;7.576;2022-08-14T06:38:18;98016.88;;;24.16;36.08
10587;BME280;5341;47.606;7.576;2022-08-14T06:40:48;98019.31;;;24.18;35.93
10587;BME280;5341;47.606;7.576;2022-08-14T06:43:17;98019.25;;;24.23;36.09
10587;BME280;5341;47.606;7.576;2022-08-14T06:45:47;98024.94;;;24.32;36.07
10587;BME280;5341;47.606;7.576;2022-08-14T06:48:17;98033.91;;;24.37;36.12
10587;BME280;5341;47.606;7.576;2022-08-14T06:50:47;98031.63;;;24.44;35.90
10587;BME280;5341;47.606;7.576;2022-08-14T06:53:16;98041.94;;;24.52;36.06
10587;BME280;5341;47.606;7.576;2022-08-14T06:55:46;98042.97;;;24.57;36.03
10587;BME280;5341;47.606;7.576;2022-08-14T06:58:16;98050.03;;;24.63;36.20
10587;BME280;5341;47.606;7.576;2022-08-14T07:00:45;98044.97;;;24.75;36.24
10587;BME280;5341;47.606;7.576;2022-08-14T07:03:26;98052.50;;;24.83;35.94
10587;BME280;5341;47.606;7.576;2022-08-14T07:06:12;98053.25;;;24.89;35.70
10587;BME280;5341;47.606;7.576;2022-08-14T07:08:41;98064.38;;;24.97;35.35
10587;BME280;5341;47.606;7.576;2022-08-14T07:11:10;98081.03;;;25.01;35.77
10587;BME280;5341;47.606;7.576;2022-08-14T07:13:37;98081.31;;;24.99;35.64
10587;BME280;5341;47.606;7.576;2022-08-14T07:16:06;98073.44;;;24.93;35.51
10587;BME280;5341;47.606;7.576;2022-08-14T07:18:34;98060.56;;;24.93;35.33
10587;BME280;5341;47.606;7.576;2022-08-14T07:21:03;98031.00;;;24.95;35.46
10587;BME280;5341;47.606;7.576;2022-08-14T07:23:33;98012.88;;;25.04;35.64
10587;BME280;5341;47.606;7.576;2022-08-14T07:26:04;98016.28;;;25.15;35.81
10587;BME280;5341;47.606;7.576;2022-08-14T07:28:33;98025.06;;;25.31;35.58
10587;BME280;5341;47.606;7.576;2022-08-14T07:31:04;98018.03;;;25.43;35.61
10587;BME280;5341;47.606;7.576;2022-08-14T07:33:34;98035.06;;;25.59;35.25
10587;BME280;5341;47.606;7.576;2022-08-14T07:36:05;98044.47;;;25.72;34.96
10587;BME280;5341;47.606;7.576;2022-08-14T07:38:33;98039.22;;;25.76;34.34
10587;BME280;5341;47.606;7.576;2022-08-14T07:41:04;98048.38;;;25.85;34.09
10587;BME280;5341;47.606;7.576;2022-08-14T07:43:31;98049.09;;;25.90;33.91
10587;BME280;5341;47.606;7.576;2022-08-14T07:45:59;98047.09;;;25.96;33.73
10587;BME280;5341;47.606;7.576;2022-08-14T07:48:27;98039.59;;;26.02;33.47
10587;BME280;5341;47.606;7.576;2022-08-14T07:50:55;98051.50;;;26.11;33.76
10587;BME280;5341;47.606;7.576;2022-08-14T07:53:23;98068.91;;;26.20;33.27
10587;BME280;5341;47.606;7.576;2022-08-14T07:55:51;98053.66;;;26.27;33.18
10587;BME280;5341;47.606;7.576;2022-08-14T07:58:20;98051.00;;;26.41;33.36
10587;BME280;5341;47.606;7.576;2022-08-14T08:00:48;98059.75;;;26.57;33.28
10587;BME280;5341;47.606;7.576;2022-08-14T08:03:17;98052.63;;;26.70;33.09
10587;BME280;5341;47.606;7.576;2022-08-14T08:05:45;98049.06;;;26.83;33.06
10587;BME280;5341;47.606;7.576;2022-08-14T08:08:15;98055.00;;;27.04;32.41
10587;BME280;5341;47.606;7.576;2022-08-14T08:10:43;98054.16;;;27.17;32.50
10587;BME280;5341;47.606;7.576;2022-08-14T08:13:13;98044.19;;;27.21;32.25
10587;BME280;5341;47.606;7.576;2022-08-14T08:15:44;98038.69;;;27.21;31.99
10587;BME280;5341;47.606;7.576;2022-08-14T08:18:13;98050.97;;;27.24;32.25
10587;BME280;5341;47.606;7.576;2022-08-14T08:20:43;98041.63;;;27.25;31.91
10587;BME280;5341;47.606;7.576;2022-08-14T08:23:12;98024.75;;;27.31;31.84
10587;BME280;5341;47.606;7.576;2022-08-14T08:25:42;98028.97;;;27.37;31.61
10587;BME280;5341;47.606;7.576;2022-08-14T08:28:12;98030.72;;;27.33;31.46
10587;BME280;5341;47.606;7.576;2022-08-14T08:30:46;98023.47;;;27.37;31.33
10587;BME280;5341;47.606;7.576;2022-08-14T08:33:14;98004.34;;;27.46;31.25
10587;BME280;5341;47.606;7.576;2022-08-14T08:35:42;98016.59;;;27.62;31.31
10587;BME280;5341;47.606;7.576;2022-08-14T08:38:12;98004.63;;;27.81;31.52
10587;BME280;5341;47.606;7.576;2022-08-14T08:40:44;98000.88;;;27.99;31.07
10587;BME280;5341;47.606;7.576;2022-08-14T08:43:20;97998.84;;;28.13;30.63
10587;BME280;5341;47.606;7.576;2022-08-14T08:45:57;97990.53;;;28.27;30.53
10587;BME280;5341;47.606;7.576;2022-08-14T08:48:27;97992.69;;;28.39;29.96
10587;BME280;5341;47.606;7.576;2022-08-14T08:50:56;98004.56;;;28.48;30.10
10587;BME280;5341;47.606;7.576;2022-08-14T08:53:29;98011.03;;;28.52;29.73
10587;BME280;5341;47.606;7.576;2022-08-14T08:55:58;98019.00;;;28.62;29.88
10587;BME280;5341;47.606;7.576;2022-08-14T08:58:25;98025.84;;;28.82;29.57
10587;BME280;5341;47.606;7.576;2022-08-14T09:00:56;98016.50;;;28.92;29.29
10587;BME280;5341;47.606;7.576;2022-08-14T09:03:25;98009.88;;;28.93;29.13
10587;BME280;5341;47.606;7.576;2022-08-14T09:05:54;98013.47;;;29.02;29.27
10587;BME280;5341;47.606;7.576;2022-08-14T09:08:24;98006.53;;;29.22;29.00
10587;BME280;5341;47.606;7.576;2022-08-14T09:10:53;98004.91;;;29.38;29.02
10587;BME280;5341;47.606;7.576;2022-08-14T09:13:22;98010.16;;;29.48;29.07
10587;BME280;5341;47.606;7.576;2022-08-14T09:15:52;98007.06;;;29.58;29.04
10587;BME280;5341;47.606;7.576;2022-08-14T09:18:22;98003.66;;;29.61;28.97
10587;BME280;5341;47.606;7.576;2022-08-14T09:20:53;98003.47;;;29.66;28.84
10587;BME280;5341;47.606;7.576;2022-08-14T09:23:22;98011.56;;;29.45;27.93
10587;BME280;5341;47.606;7.576;2022-08-14T09:25:50;98000.06;;;29.26;28.71
10587;BME280;5341;47.606;7.576;2022-08-14T09:28:20;97995.34;;;29.27;28.56
10587;BME280;5341;47.606;7.576;2022-08-14T09:30:50;98001.69;;;29.36;28.58
10587;BME280;5341;47.606;7.576;2022-08-14T09:33:36;98012.09;;;29.48;28.32
10587;BME280;5341;47.606;7.576;2022-08-14T09:36:30;98002.81;;;29.43;28.24
10587;BME280;5341;47.606;7.576;2022-08-14T09:39:07;98004.31;;;29.50;28.39
10587;BME280;5341;47.606;7.576;2022-08-14T09:41:49;97997.34;;;29.61;27.90
10587;BME280;5341;47.606;7.576;2022-08-14T09:44:32;97998.78;;;29.67;27.86
10587;BME280;5341;47.606;7.576;2022-08-14T09:47:05;98000.88;;;29.87;27.96
10587;BME280;5341;47.606;7.576;2022-08-14T09:49:37;97995.47;;;30.17;27.99
10587;BME280;5341;47.606;7.576;2022-08-14T09:52:09;97997.94;;;30.48;27.96
10587;BME280;5341;47.606;7.576;2022-08-14T09:54:39;97992.53;;;30.69;27.96
10587;BME280;5341;47.606;7.576;2022-08-14T09:57:09;97993.19;;;30.95;27.62
10587;BME280;5341;47.606;7.576;2022-08-14T09:59:39;97999.38;;;31.13;27.62
10587;BME280;5341;47.606;7.576;2022-08-14T10:02:25;97987.25;;;31.35;27.12
10587;BME280;5341;47.606;7.576;2022-08-14T10:05:05;97987.84;;;31.40;26.85
10587;BME280;5341;47.606;7.576;2022-08-14T10:07:36;97984.81;;;31.33;27.14
10587;BME280;5341;47.606;7.576;2022-08-14T10:10:04;97975.31;;;31.43;27.43
10587;BME280;5341;47.606;7.576;2022-08-14T10:12:44;97975.03;;;31.57;27.38
10587;BME280;5341;47.606;7.576;2022-08-14T10:15:15;97973.59;;;31.71;27.35
10587;BME280;5341;47.606;7.576;2022-08-14T10:17:43;97976.34;;;31.92;26.89
10587;BME280;5341;47.606;7.576;2022-08-14T10:20:13;97974.06;;;32.06;27.15
10587;BME280;5341;47.606;7.576;2022-08-14T10:22:40;97965.31;;;32.17;26.88
10587;BME280;5341;47.606;7.576;2022-08-14T10:25:10;97965.22;;;32.25;26.92
10587;BME280;5341;47.606;7.576;2022-08-14T10:27:39;97960.09;;;32.48;26.94
10587;BME280;5341;47.606;7.576;2022-08-14T10:30:13;97963.22;;;32.59;26.49
10587;BME280;5341;47.606;7.576;2022-08-14T10:32:45;97965.75;;;32.88;26.76
10587;BME280;5341;47.606;7.576;2022-08-14T10:35:15;97963.63;;;33.10;26.75
10587;BME280;5341;47.606;7.576;2022-08-14T10:37:45;97972.47;;;33.28;26.20
10587;BME280;5341;47.606;7.576;2022-08-14T10:40:24;97964.81;;;33.49;26.09
10587;BME280;5341;47.606;7.576;2022-08-14T10:42:53;97969.59;;;33.64;26.33
10587;BME280;5341;47.606;7.576;2022-08-14T10:45:23;97972.13;;;33.69;26.10
10587;BME280;5341;47.606;7.576;2022-08-14T10:47:51;97976.16;;;33.72;26.47
10587;BME280;5341;47.606;7.576;2022-08-14T10:50:30;97972.06;;;33.82;26.38
10587;BME280;5341;47.606;7.576;2022-08-14T10:52:59;97973.09;;;33.89;26.48
10587;BME280;5341;47.606;7.576;2022-08-14T10:55:32;97967.09;;;33.87;26.64
10587;BME280;5341;47.606;7.576;2022-08-14T10:58:05;97970.66;;;33.88;26.77
10587;BME280;5341;47.606;7.576;2022-08-14T11:00:38;97976.22;;;33.88;27.34
10587;BME280;5341;47.606;7.576;2022-08-14T11:03:08;97971.84;;;33.87;27.35
10587;BME280;5341;47.606;7.576;2022-08-14T11:05:43;97981.19;;;33.82;27.08
10587;BME280;5341;47.606;7.576;2022-08-14T11:08:12;97974.78;;;33.66;27.66
10587;BME280;5341;47.606;7.576;2022-08-14T11:10:44;97978.75;;;33.53;27.53
10587;BME280;5341;47.606;7.576;2022-08-14T11:13:16;97976.16;;;33.44;27.81
10587;BME280;5341;47.606;7.576;2022-08-14T11:15:46;97979.88;;;33.36;27.85
10587;BME280;5341;47.606;7.576;2022-08-14T11:18:15;97979.63;;;33.29;27.88
10587;BME280;5341;47.606;7.576;2022-08-14T11:20:49;97983.69;;;33.19;27.92
10587;BME280;5341;47.606;7.576;2022-08-14T11:23:20;97979.81;;;33.08;28.18
10587;BME280;5341;47.606;7.576;2022-08-14T11:25:48;97983.72;;;32.94;28.17
10587;BME280;5341;47.606;7.576;2022-08-14T11:28:22;97993.69;;;32.96;28.46
10587;BME280;5341;47.606;7.576;2022-08-14T11:30:50;97991.22;;;33.06;28.56
10587;BME280;5341;47.606;7.576;2022-08-14T11:33:21;97998.22;;;33.28;28.23
10587;BME280;5341;47.606;7.576;2022-08-14T11:35:51;98003.97;;;33.47;27.99
10587;BME280;5341;47.606;7.576;2022-08-14T11:38:19;98005.31;;;33.54;27.61
10587;BME280;5341;47.606;7.576;2022-08-14T11:40:47;97996.38;;;33.72;27.49
10587;BME280;5341;47.606;7.576;2022-08-14T11:43:14;97995.47;;;33.68;27.45
10587;BME280;5341;47.606;7.576;2022-08-14T11:45:45;97997.13;;;33.57;27.57
10587;BME280;5341;47.606;7.576;2022-08-14T11:48:15;97992.44;;;33.45;27.70
10587;BME280;5341;47.606;7.576;2022-08-14T11:50:44;98001.13;;;33.32;27.56
10587;BME280;5341;47.606;7.576;2022-08-14T11:53:22;97989.72;;;33.21;27.75
10587;BME280;5341;47.606;7.576;2022-08-14T11:55:56;97992.63;;;33.00;27.86
10587;BME280;5341;47.606;7.576;2022-08-14T11:58:28;97995.31;;;32.84;27.84
10587;BME280;5341;47.606;7.576;2022-08-14T12:00:58;98004.75;;;32.71;27.66
10587;BME280;5341;47.606;7.576;2022-08-14T12:03:37;97999.66;;;32.49;27.72
10587;BME280;5341;47.606;7.576;2022-08-14T12:06:07;98014.84;;;32.43;27.49
10587;BME280;5341;47.606;7.576;2022-08-14T12:08:40;98010.91;;;32.31;27.45
10587;BME280;5341;47.606;7.576;2022-08-14T12:11:10;98003.03;;;32.21;27.69
10587;BME280;5341;47.606;7.576;2022-08-14T12:13:40;98003.59;;;32.15;27.65
10587;BME280;5341;47.606;7.576;2022-08-14T12:16:09;98011.88;;;32.02;27.03
10587;BME280;5341;47.606;7.576;2022-08-14T12:18:40;98020.25;;;31.94;26.05
10587;BME280;5341;47.606;7.576;2022-08-14T12:21:11;98025.59;;;31.78;25.52
10587;BME280;5341;47.606;7.576;2022-08-14T12:23:40;98030.72;;;31.67;25.86
10587;BME280;5341;47.606;7.576;2022-08-14T12:26:09;98032.28;;;31.56;25.20
10587;BME280;5341;47.606;7.576;2022-08-14T12:28:41;98028.63;;;31.43;25.30
10587;BME280;5341;47.606;7.576;2022-08-14T12:31:14;98029.06;;;31.25;24.67
10587;BME280;5341;47.606;7.576;2022-08-14T12:33:42;98043.28;;;31.14;24.85
10587;BME280;5341;47.606;7.576;2022-08-14T12:36:18;98036.53;;;31.03;24.51
10587;BME280;5341;47.606;7.576;2022-08-14T12:38:48;98030.47;;;30.80;24.54
10587;BME280;5341;47.606;7.576;2022-08-14T12:41:20;98037.16;;;30.62;24.67
10587;BME280;5341;47.606;7.576;2022-08-14T12:43:50;98040.97;;;30.49;24.77
10587;BME280;5341;47.606;7.576;2022-08-14T12:46:23;98040.34;;;30.43;25.16
10587;BME280;5341;47.606;7.576;2022-08-14T12:48:53;98033.22;;;30.33;25.30
10587;BME280;5341;47.606;7.576;2022-08-14T12:51:22;98033.09;;;30.30;25.66
10587;BME280;5341;47.606;7.576;2022-08-14T12:53:53;98031.59;;;30.32;25.95
10587;BME280;5341;47.606;7.576;2022-08-14T12:56:21;98036.16;;;30.28;26.15
10587;BME280;5341;47.606;7.576;2022-08-14T12:58:51;98029.81;;;30.28;26.66
10587;BME280;5341;47.606;7.576;2022-08-14T13:01:21;98027.41;;;30.26;27.27
10587;BME280;5341;47.606;7.576;2022-08-14T13:03:50;98025.31;;;30.23;27.49
10587;BME280;5341;47.606;7.576;2022-08-14T13:06:19;98023.53;;;30.19;27.67
10587;BME280;5341;47.606;7.576;2022-08-14T13:08:49;98021.59;;;30.11;27.97
10587;BME280;5341;47.606;7.576;2022-08-14T13:11:21;98013.00;;;30.12;28.05
10587;BME280;5341;47.606;7.576;2022-08-14T13:13:57;98007.50;;;30.12;28.54
10587;BME280;5341;47.606;7.576;2022-08-14T13:16:28;97998.53;;;30.15;28.48
10587;BME280;5341;47.606;7.576;2022-08-14T13:18:56;98001.63;;;30.14;28.60
10587;BME280;5341;47.606;7.576;2022-08-14T13:21:26;97991.72;;;30.21;28.52
10587;BME280;5341;47.606;7.576;2022-08-14T13:23:55;97984.25;;;30.30;28.60
10587;BME280;5341;47.606;7.576;2022-08-14T13:26:25;97983.72;;;30.37;28.58